Time;durP1;ratioP1;P1;durP2;ratioP2;P2;SDS_P1;SDS_P2;PMS_P1;PMS_P2;Temp;Humidity;BMP_temperature;BMP_pressure;BME280_temperature;BME280_humidity;BME280_pressure;Samples;Min_cycle;Max_cycle;Signal;HPM_P1;HPM_P2
2022/12/19 00:01:27;;;;;;;45.22;19.40;;;;;;;-4.08;100.00;151536.84;4997489;28;20098;-74
2022/12/19 00:03:55;;;;;;;42.22;18.25;;;;;;;-4.18;100.00;151511.44;5019423;28;20037;-74
2022/12/19 00:06:21;;;;;;;41.92;19.95;;;;;;;-4.19;100.00;151508.94;5000024;28;20045;-73
2022/12/19 00:08:49;;;;;;;44.08;20.33;;;;;;;-4.19;100.00;151510.19;5019447;28;20051;-74
2022/12/19 00:11:16;;;;;;;44.30;20.67;;;;;;;-4.15;100.00;151519.06;4997033;28;20048;-75
2022/12/19 00:13:42;;;;;;;42.33;19.98;;;;;;;-4.16;100.00;151517.81;5025683;28;20045;-75
2022/12/19 00:16:17;;;;;;;45.10;18.67;;;;;;;-4.22;100.00;151502.59;4987227;28;20068;-75
2022/12/19 00:18:44;;;;;;;43.67;18.75;;;;;;;-4.19;100.00;151510.19;5008253;28;20036;-74
2022/12/19 00:21:18;;;;;;;42.22;20.02;;;;;;;-4.13;100.00;151525.41;5014774;28;20037;-74
2022/12/19 00:23:45;;;;;;;43.60;18.05;;;;;;;-4.19;100.00;151510.19;4990385;28;20168;-73
2022/12/19 00:26:29;;;;;;;40.88;19.27;;;;;;;-4.09;100.00;151534.28;4999792;28;20044;-74
2022/12/19 00:28:58;;;;;;;40.08;19.17;;;;;;;-4.22;100.00;151501.28;5017062;28;20024;-74
2022/12/19 00:31:26;;;;;;;41.78;18.80;;;;;;;-4.20;100.00;151507.66;5010901;28;20021;-73
2022/12/19 00:33:52;;;;;;;36.85;16.88;;;;;;;-4.28;100.00;151487.31;5016573;28;20041;-74
2022/12/19 00:36:29;;;;;;;42.20;18.73;;;;;;;-4.25;100.00;151493.69;4999752;28;20624;-73
2022/12/19 00:39:00;;;;;;;43.00;18.70;;;;;;;-4.22;100.00;151502.59;5005225;28;20045;-74
2022/12/19 00:41:34;;;;;;;41.42;18.42;;;;;;;-4.21;100.00;151503.84;5002981;28;20543;-73
2022/12/19 00:44:08;;;;;;;38.35;18.48;;;;;;;-4.25;100.00;151494.97;4993519;28;20115;-73
2022/12/19 00:46:35;;;;;;;40.88;18.38;;;;;;;-4.28;100.00;151486.06;4997273;28;20045;-74
2022/12/19 00:49:03;;;;;;;40.28;18.50;;;;;;;-4.22;100.00;151501.28;4994741;28;20040;-74
2022/12/19 00:51:33;;;;;;;40.30;19.10;;;;;;;-4.28;100.00;151487.31;5007752;28;20526;-74
2022/12/19 00:53:59;;;;;;;42.03;18.55;;;;;;;-4.23;100.00;151500.03;4997930;28;20520;-74
2022/12/19 00:56:30;;;;;;;41.33;18.83;;;;;;;-4.21;100.00;151503.84;4996196;28;20037;-73
2022/12/19 00:58:58;;;;;;;40.25;18.67;;;;;;;-4.24;100.00;151496.22;5012531;28;20486;-74
2022/12/19 01:01:27;;;;;;;38.90;18.38;;;;;;;-4.16;100.00;151516.56;5012162;28;20045;-74
2022/12/19 01:03:57;;;;;;;38.75;18.05;;;;;;;-4.17;100.00;151514.00;4989632;28;20099;-74
2022/12/19 01:06:24;;;;;;;40.35;18.40;;;;;;;-4.05;100.00;151543.19;5010669;28;20106;-73
2022/12/19 01:08:51;;;;;;;40.92;20.27;;;;;;;-4.07;100.00;151538.13;4981692;28;20403;-74
2022/12/19 01:11:17;;;;;;;41.20;18.73;;;;;;;-4.12;100.00;151526.72;5031046;28;20037;-74
2022/12/19 01:13:43;;;;;;;38.70;18.23;;;;;;;-4.01;100.00;151553.34;5000409;28;20041;-74
2022/12/19 01:16:15;;;;;;;38.35;17.88;;;;;;;-4.17;100.00;151514.00;4996194;28;20044;-74
2022/12/19 01:18:41;;;;;;;38.65;17.75;;;;;;;-3.99;100.00;151559.72;4993313;28;20064;-73
2022/12/19 01:21:10;;;;;;;39.53;18.73;;;;;;;-3.97;100.00;151564.78;4997337;28;20622;-74
2022/12/19 01:23:36;;;;;;;39.25;18.80;;;;;;;-4.06;100.00;151540.66;4985611;28;20037;-73
2022/12/19 01:26:02;;;;;;;43.15;20.45;;;;;;;-4.05;100.00;151543.19;4995144;28;20502;-73
2022/12/19 01:28:29;;;;;;;42.38;18.77;;;;;;;-4.06;100.00;151541.94;4993926;28;20724;-74
2022/12/19 01:30:58;;;;;;;37.78;17.23;;;;;;;-4.01;100.00;151554.63;5018877;28;20040;-75
2022/12/19 01:33:24;;;;;;;42.97;18.65;;;;;;;-3.97;100.00;151563.53;5031083;28;20110;-74
2022/12/19 01:35:50;;;;;;;38.55;17.90;;;;;;;-3.94;100.00;151571.13;4994748;28;20033;-74
2022/12/19 01:38:18;;;;;;;40.90;18.15;;;;;;;-3.95;100.00;151569.84;5017083;28;20039;-72
2022/12/19 01:40:55;;;;;;;41.95;18.10;;;;;;;-3.92;100.00;151576.19;5002219;28;20131;-74
2022/12/19 01:43:24;;;;;;;39.25;17.00;;;;;;;-3.99;100.00;151558.47;5002821;28;20103;-76
2022/12/19 01:45:59;;;;;;;40.33;18.70;;;;;;;-4.04;100.00;151547.00;4990764;28;20044;-74
2022/12/19 01:48:35;;;;;;;43.80;19.42;;;;;;;-3.98;100.00;151560.97;4999711;28;20065;-75
2022/12/19 01:51:06;;;;;;;37.10;17.75;;;;;;;-4.00;100.00;151555.91;4985131;28;20033;-73
2022/12/19 01:53:45;;;;;;;40.20;18.30;;;;;;;-3.96;100.00;151567.31;4994845;28;20041;-74
2022/12/19 01:56:12;;;;;;;39.83;18.55;;;;;;;-3.97;100.00;151563.53;4992596;28;20083;-73
2022/12/19 01:58:42;;;;;;;39.38;17.13;;;;;;;-3.96;100.00;151566.03;4997303;28;20110;-72
2022/12/19 02:01:08;;;;;;;39.58;18.75;;;;;;;-3.88;100.00;151586.38;5017681;28;20548;-73
2022/12/19 02:03:37;;;;;;;36.53;17.63;;;;;;;-3.91;100.00;151580.00;4996335;28;20045;-74
2022/12/19 02:06:05;;;;;;;37.47;17.38;;;;;;;-3.79;100.00;151609.22;4995916;28;20066;-75
2022/12/19 02:08:35;;;;;;;35.30;16.88;;;;;;;-3.84;100.00;151596.53;5000222;28;20045;-72
2022/12/19 02:11:04;;;;;;;38.78;17.63;;;;;;;-3.86;100.00;151590.16;5014024;28;20060;-73
2022/12/19 02:13:32;;;;;;;39.85;17.13;;;;;;;-3.70;100.00;151630.81;5004494;28;20049;-74
2022/12/19 02:16:30;;;;;;;37.55;17.75;;;;;;;-3.67;100.00;151637.16;5011544;28;20411;-73
2022/12/19 02:19:16;;;;;;;37.90;16.83;;;;;;;-3.76;100.00;151615.59;5004449;28;20041;-72
2022/12/19 02:22:02;;;;;;;39.03;18.25;;;;;;;-3.62;100.00;151651.13;5012413;28;20061;-73
2022/12/19 02:25:08;;;;;;;38.88;17.95;;;;;;;-3.53;100.00;151672.72;5002018;28;20414;-73
2022/12/19 02:28:03;;;;;;;32.55;17.08;;;;;;;-3.60;100.00;151654.94;5000487;28;20091;-73
2022/12/19 02:30:49;;;;;;;42.08;18.35;;;;;;;-3.53;100.00;151673.97;5001198;28;20052;-73
2022/12/19 02:33:35;;;;;;;38.47;17.65;;;;;;;-3.58;100.00;151660.00;4990132;28;20048;-74
2022/12/19 02:36:11;;;;;;;40.38;18.50;;;;;;;-3.58;100.00;151661.31;4989372;28;20048;-74
2022/12/19 02:38:49;;;;;;;35.30;17.67;;;;;;;-3.49;100.00;151681.63;5007400;28;20044;-74
2022/12/19 02:41:45;;;;;;;39.10;17.90;;;;;;;-3.58;100.00;151661.31;5002987;28;20518;-74
2022/12/19 02:44:26;;;;;;;39.67;16.65;;;;;;;-3.63;100.00;151647.34;5007997;28;20049;-74
2022/12/19 02:46:57;;;;;;;39.58;18.38;;;;;;;-3.69;100.00;151633.38;4986080;28;20608;-73
2022/12/19 02:49:28;;;;;;;36.67;17.48;;;;;;;-3.53;100.00;151673.97;5021118;28;20045;-74
2022/12/19 02:51:55;;;;;;;43.05;19.17;;;;;;;-3.52;100.00;151676.53;4978714;28;20037;-74
2022/12/19 02:54:21;;;;;;;39.78;18.48;;;;;;;-3.52;100.00;151675.28;5014463;28;20041;-75
2022/12/19 02:56:53;;;;;;;39.60;19.38;;;;;;;-3.47;100.00;151686.69;5004294;28;20055;-74
2022/12/19 02:59:22;;;;;;;37.70;17.53;;;;;;;-3.43;100.00;151696.84;5011690;28;20045;-75
2022/12/19 03:01:52;;;;;;;39.67;19.00;;;;;;;-3.47;100.00;151686.69;4999167;28;20048;-75
2022/12/19 03:04:26;;;;;;;38.78;19.40;;;;;;;-3.47;100.00;151687.94;4993237;28;20820;-75
2022/12/19 03:07:00;;;;;;;38.22;17.77;;;;;;;-3.45;100.00;151691.78;5012096;28;20041;-74
2022/12/19 03:09:41;;;;;;;38.25;18.60;;;;;;;-3.39;100.00;151708.31;4997548;28;20063;-75
2022/12/19 03:12:15;;;;;;;41.20;17.95;;;;;;;-3.34;100.00;151720.97;5004597;28;20311;-74
2022/12/19 03:14:42;;;;;;;39.97;18.83;;;;;;;-3.36;100.00;151714.66;4997840;28;20853;-74
2022/12/19 03:17:08;;;;;;;41.25;19.60;;;;;;;-3.40;100.00;151704.50;5004955;28;20040;-75
2022/12/19 03:19:37;;;;;;;40.40;18.95;;;;;;;-3.37;100.00;151712.09;4997548;28;20044;-75
2022/12/19 03:22:02;;;;;;;39.40;18.83;;;;;;;-3.39;100.00;151707.00;5001509;28;20045;-75
2022/12/19 03:24:28;;;;;;;37.80;18.17;;;;;;;-3.40;100.00;151705.75;5033940;28;20079;-75
2022/12/19 03:27:17;;;;;;;37.30;18.60;;;;;;;-3.36;100.00;151715.91;5018993;28;20037;-74
2022/12/19 03:30:01;;;;;;;38.38;18.67;;;;;;;-3.31;100.00;151727.38;4995280;28;20139;-74
2022/12/19 03:32:30;;;;;;;40.40;18.90;;;;;;;-3.27;100.00;151736.25;5004499;28;20044;-74
2022/12/19 03:35:12;;;;;;;43.25;20.23;;;;;;;-3.33;100.00;151722.28;4999190;28;20033;-75
2022/12/19 03:37:41;;;;;;;38.42;20.00;;;;;;;-3.24;100.00;151743.84;5015395;28;20068;-74
2022/12/19 03:40:12;;;;;;;38.45;17.88;;;;;;;-3.31;100.00;151727.38;4985383;28;20037;-75
2022/12/19 03:45:50;;;;;;;34.85;16.80;;;;;;;-3.20;100.00;151755.31;5016691;28;20029;-74
2022/12/19 03:48:25;;;;;;;39.10;18.30;;;;;;;-3.09;100.00;151780.69;5001390;28;20049;-74
2022/12/19 03:51:03;;;;;;;38.10;18.05;;;;;;;-3.09;100.00;151780.69;5018661;28;20032;-75
2022/12/19 03:53:31;;;;;;;39.10;18.42;;;;;;;-3.09;100.00;151781.97;5003743;28;20045;-74
2022/12/19 03:56:39;;;;;;;37.60;17.92;;;;;;;-3.04;100.00;151794.69;5019564;28;20037;-75
2022/12/19 03:59:22;;;;;;;36.22;18.67;;;;;;;-3.04;100.00;151794.69;5016795;28;20044;-75
2022/12/19 04:01:48;;;;;;;35.65;18.17;;;;;;;-3.07;100.00;151787.09;5007351;28;20037;-75
2022/12/19 04:04:14;;;;;;;35.40;19.15;;;;;;;-3.05;100.00;151792.16;5013090;28;20045;-75
2022/12/19 04:06:42;;;;;;;41.95;20.15;;;;;;;-3.05;100.00;151790.84;5014582;28;20120;-75
2022/12/19 04:09:09;;;;;;;35.60;18.55;;;;;;;-3.01;100.00;151801.06;4995734;28;20055;-74
2022/12/19 04:11:42;;;;;;;38.47;19.58;;;;;;;-3.08;100.00;151783.25;4997652;28;20029;-74
2022/12/19 04:14:19;;;;;;;38.13;18.60;;;;;;;-2.98;100.00;151808.66;5008893;28;20571;-72
2022/12/19 04:17:20;;;;;;;36.85;19.70;;;;;;;-3.05;100.00;151792.16;5000217;28;20084;-76
2022/12/19 04:19:57;;;;;;;43.45;19.30;;;;;;;-2.99;100.00;151806.13;4952918;28;20051;-76
2022/12/19 04:22:30;;;;;;;37.05;18.70;;;;;;;-3.01;100.00;151801.06;5031146;28;20055;-74
2022/12/19 04:24:58;;;;;;;39.97;20.23;;;;;;;-2.96;100.00;151815.03;4977877;28;20045;-74
2022/12/19 04:27:28;;;;;;;40.78;18.33;;;;;;;-2.99;100.00;151806.13;5016468;28;20040;-75
2022/12/19 04:29:58;;;;;;;36.40;18.58;;;;;;;-3.00;100.00;151804.84;5010088;28;20037;-74
2022/12/19 04:32:25;;;;;;;37.20;18.48;;;;;;;-3.04;100.00;151794.69;5015524;28;20053;-74
2022/12/19 04:34:53;;;;;;;38.25;19.83;;;;;;;-3.01;100.00;151801.06;4998864;28;20037;-75
2022/12/19 04:37:19;;;;;;;34.80;18.27;;;;;;;-3.01;100.00;151801.06;4997671;28;20041;-74
2022/12/19 04:39:45;;;;;;;33.63;18.02;;;;;;;-2.86;100.00;151837.88;4998598;28;20060;-75
2022/12/19 04:42:10;;;;;;;35.15;18.25;;;;;;;-2.90;100.00;151827.72;4998656;28;20040;-74
2022/12/19 04:44:36;;;;;;;41.58;20.75;;;;;;;-2.94;100.00;151820.13;4996055;28;20532;-74
2022/12/19 04:47:02;;;;;;;39.13;17.30;;;;;;;-2.92;100.00;151823.88;5012114;28;20037;-74
2022/12/19 04:49:28;;;;;;;35.42;18.65;;;;;;;-2.94;100.00;151820.13;5013286;28;22155;-74
2022/12/19 04:51:53;;;;;;;36.92;18.45;;;;;;;-2.86;100.00;151839.16;5031823;28;20029;-74
2022/12/19 04:54:20;;;;;;;40.38;20.35;;;;;;;-2.79;100.00;151856.97;4993472;28;20721;-75
2022/12/19 04:56:45;;;;;;;35.75;19.77;;;;;;;-2.84;100.00;151843.00;5012567;28;20055;-75
2022/12/19 04:59:12;;;;;;;35.55;17.75;;;;;;;-2.70;100.00;151877.28;5010709;28;20033;-74
2022/12/19 05:01:37;;;;;;;37.70;19.17;;;;;;;-2.61;100.00;151901.44;4998689;28;20119;-75
2022/12/19 05:04:03;;;;;;;40.65;19.85;;;;;;;-2.62;100.00;151897.63;5014433;28;20137;-74
2022/12/19 05:06:28;;;;;;;34.55;17.77;;;;;;;-2.66;100.00;151888.72;4994130;28;20044;-75
2022/12/19 05:08:54;;;;;;;33.88;18.05;;;;;;;-2.64;100.00;151893.78;4998092;28;20041;-75
2022/12/19 05:11:20;;;;;;;35.83;19.17;;;;;;;-2.60;100.00;151904.00;4998180;28;20032;-75
2022/12/19 05:13:46;;;;;;;33.38;18.85;;;;;;;-2.73;100.00;151870.97;5010890;28;20041;-75
2022/12/19 05:16:14;;;;;;;36.50;18.88;;;;;;;-2.69;100.00;151881.13;5034446;28;20039;-76
2022/12/19 05:18:40;;;;;;;37.50;17.77;;;;;;;-2.71;100.00;151874.72;4996365;28;20048;-75
2022/12/19 05:21:06;;;;;;;37.50;20.08;;;;;;;-2.67;100.00;151884.94;5010033;28;20042;-75
2022/12/19 05:23:32;;;;;;;39.38;20.35;;;;;;;-2.66;100.00;151887.44;4996416;28;20480;-74
2022/12/19 05:25:59;;;;;;;35.30;18.02;;;;;;;-2.57;100.00;151910.34;5018609;28;20128;-74
2022/12/19 05:28:26;;;;;;;38.90;17.83;;;;;;;-2.49;100.00;151930.66;5023766;28;20040;-74
2022/12/19 05:30:51;;;;;;;38.88;18.42;;;;;;;-2.58;100.00;151907.78;5027643;28;20036;-74
2022/12/19 05:33:17;;;;;;;36.35;18.63;;;;;;;-2.49;100.00;151930.66;5021196;28;20387;-75
2022/12/19 05:35:46;;;;;;;35.17;18.27;;;;;;;-2.45;100.00;151940.88;5021834;28;20044;-75
2022/12/19 05:38:14;;;;;;;36.75;19.00;;;;;;;-2.42;100.00;151947.19;5008414;28;20048;-75
2022/12/19 05:40:43;;;;;;;34.38;19.08;;;;;;;-2.44;100.00;151942.13;5021851;28;20567;-74
2022/12/19 05:43:08;;;;;;;33.97;17.98;;;;;;;-2.45;100.00;151940.88;5007270;28;20044;-74
2022/12/19 05:45:38;;;;;;;33.72;19.05;;;;;;;-2.35;100.00;151966.28;5029227;28;20048;-74
2022/12/19 05:48:04;;;;;;;35.45;18.83;;;;;;;-2.39;100.00;151956.09;5003696;28;20032;-74
2022/12/19 05:50:29;;;;;;;36.28;18.85;;;;;;;-2.47;100.00;151935.75;5005373;28;20039;-74
2022/12/19 05:53:07;;;;;;;33.45;17.20;;;;;;;-2.43;100.00;151945.94;5024392;28;20040;-74
2022/12/19 05:55:33;;;;;;;39.28;20.30;;;;;;;-2.37;100.00;151959.94;5003222;28;20039;-74
2022/12/19 05:57:58;;;;;;;32.78;18.08;;;;;;;-2.35;100.00;151965.00;5030162;28;20041;-73
2022/12/19 06:00:24;;;;;;;35.15;18.85;;;;;;;-2.25;100.00;151990.41;5015851;28;20037;-75
2022/12/19 06:02:50;;;;;;;38.03;18.17;;;;;;;-2.21;100.00;152000.59;5002754;28;20040;-75
2022/12/19 06:05:16;;;;;;;34.50;19.38;;;;;;;-2.22;100.00;151996.81;5012931;28;20118;-74
2022/12/19 06:07:41;;;;;;;33.75;19.23;;;;;;;-2.22;100.00;151998.06;5013969;28;20534;-74
2022/12/19 06:10:07;;;;;;;36.08;19.70;;;;;;;-2.03;100.00;152045.09;4997164;28;20029;-74
2022/12/19 06:12:32;;;;;;;34.13;18.83;;;;;;;-2.10;100.00;152026.03;5016135;28;20364;-74
2022/12/19 06:14:58;;;;;;;37.88;19.55;;;;;;;-2.08;100.00;152032.38;5027673;28;20079;-74
2022/12/19 06:17:23;;;;;;;35.75;19.48;;;;;;;-2.00;100.00;152051.44;5011946;28;20047;-74
2022/12/19 06:19:49;;;;;;;36.10;19.42;;;;;;;-2.00;100.00;152052.75;5021963;28;20037;-73
2022/12/19 06:22:14;;;;;;;34.03;19.50;;;;;;;-1.97;100.00;152059.09;5008342;28;20040;-75
2022/12/19 06:24:40;;;;;;;32.85;18.63;;;;;;;-1.97;100.00;152059.09;5022088;28;20469;-75
2022/12/19 06:27:06;;;;;;;34.80;19.48;;;;;;;-2.00;100.00;152052.75;5026126;28;20079;-75
2022/12/19 06:29:31;;;;;;;32.35;19.42;;;;;;;-1.91;100.00;152073.09;5009437;28;20131;-74
2022/12/19 06:31:57;;;;;;;33.00;17.83;;;;;;;-1.81;100.00;152098.50;5001388;28;20536;-74
2022/12/19 06:34:22;;;;;;;35.00;19.33;;;;;;;-1.82;100.00;152095.97;5053755;28;20490;-74
2022/12/19 06:36:48;;;;;;;35.55;20.00;;;;;;;-1.81;100.00;152099.81;5005980;28;20036;-74
2022/12/19 06:39:14;;;;;;;35.95;19.23;;;;;;;-1.70;100.00;152126.47;5039929;28;20055;-74
2022/12/19 06:44:25;;;;;;;37.03;19.60;;;;;;;-1.74;100.00;152116.31;5024784;28;20037;-73
2022/12/19 06:46:52;;;;;;;33.85;18.70;;;;;;;-1.78;100.00;152106.16;5002858;28;20051;-74
2022/12/19 06:49:18;;;;;;;36.05;19.02;;;;;;;-1.71;100.00;152122.66;5005849;28;20080;-74
2022/12/19 06:51:44;;;;;;;38.40;21.42;;;;;;;-1.53;100.00;152168.47;5014769;28;20086;-76
2022/12/19 06:54:12;;;;;;;34.13;18.83;;;;;;;-1.46;100.00;152185.03;5026277;28;20045;-74
2022/12/19 06:56:40;;;;;;;36.20;19.52;;;;;;;-1.46;100.00;152185.03;5024218;28;20113;-74
2022/12/19 06:59:09;;;;;;;34.35;21.13;;;;;;;-1.38;100.00;152206.63;4989224;28;20849;-74
2022/12/19 07:01:53;;;;;;;33.60;20.55;;;;;;;-1.44;100.00;152190.09;5036839;28;20025;-74
2022/12/19 07:04:42;;;;;;;34.33;20.25;;;;;;;-1.53;100.00;152168.47;5030988;28;20037;-74
2022/12/19 07:07:07;;;;;;;37.72;20.17;;;;;;;-1.45;100.00;152187.53;5000190;28;20045;-74
2022/12/19 07:09:34;;;;;;;36.92;21.40;;;;;;;-1.48;100.00;152179.94;5006535;28;20056;-74
2022/12/19 07:12:00;;;;;;;35.22;20.92;;;;;;;-1.49;100.00;152178.63;4993595;28;20033;-74
2022/12/19 07:14:26;;;;;;;34.72;19.90;;;;;;;-1.38;100.00;152206.63;5020061;28;20029;-74
2022/12/19 07:16:53;;;;;;;32.13;19.10;;;;;;;-1.31;100.00;152221.91;5004248;28;20045;-75
2022/12/19 07:19:21;;;;;;;32.60;18.17;;;;;;;-1.26;100.00;152234.59;5007008;28;20039;-74
2022/12/19 07:21:47;;;;;;;34.05;19.08;;;;;;;-1.29;100.00;152227.00;5040038;28;20033;-75
2022/12/19 07:24:14;;;;;;;37.47;19.85;;;;;;;-1.36;100.00;152210.44;5041191;28;20128;-73
2022/12/19 07:26:41;;;;;;;36.63;20.20;;;;;;;-1.37;100.00;152209.19;4992385;28;20056;-74
2022/12/19 07:29:09;;;;;;;33.88;19.95;;;;;;;-1.32;100.00;152220.59;5026118;28;20514;-74
2022/12/19 07:31:34;;;;;;;33.60;19.48;;;;;;;-1.11;100.00;152271.50;5026549;28;20112;-73
2022/12/19 07:34:00;;;;;;;31.17;17.58;;;;;;;-1.17;100.00;152257.50;5002925;28;20117;-74
2022/12/19 07:36:25;;;;;;;35.80;20.02;;;;;;;-1.17;100.00;152257.50;5007524;28;20044;-73
2022/12/19 07:38:51;;;;;;;34.85;19.92;;;;;;;-1.22;100.00;152246.09;5042878;28;20037;-74
2022/12/19 07:41:17;;;;;;;33.90;19.65;;;;;;;-1.24;100.00;152241.00;5003915;28;20537;-73
2022/12/19 07:43:44;;;;;;;36.10;19.73;;;;;;;-1.13;100.00;152267.72;5016024;28;20092;-74
2022/12/19 07:46:10;;;;;;;36.53;21.15;;;;;;;-1.12;100.00;152269.00;5011489;28;20041;-74
2022/12/19 07:48:36;;;;;;;37.15;21.02;;;;;;;-1.11;100.00;152271.50;5031475;28;20029;-74
2022/12/19 07:51:05;;;;;;;37.00;20.67;;;;;;;-1.15;100.00;152261.34;5024556;28;20551;-76
2022/12/19 07:53:31;;;;;;;37.35;20.02;;;;;;;-1.13;100.00;152266.44;5028494;28;20386;-73
2022/12/19 07:55:56;;;;;;;37.42;21.45;;;;;;;-1.06;100.00;152285.50;5012424;28;20037;-73
2022/12/19 07:58:22;;;;;;;38.55;21.13;;;;;;;-1.02;100.00;152294.41;5009915;28;20257;-74
2022/12/19 08:00:59;;;;;;;34.22;20.42;;;;;;;-0.99;100.00;152302.06;4990912;28;20094;-75
2022/12/19 08:03:25;;;;;;;36.65;20.35;;;;;;;-0.99;100.00;152302.06;5004517;28;20033;-75
2022/12/19 08:05:51;;;;;;;37.55;21.58;;;;;;;-1.02;100.00;152295.72;5020991;28;20033;-74
2022/12/19 08:08:17;;;;;;;39.92;21.63;;;;;;;-1.01;100.00;152297.00;5010438;28;20087;-74
2022/12/19 08:10:43;;;;;;;40.15;20.70;;;;;;;-0.99;100.00;152302.06;5040204;28;20151;-74
2022/12/19 08:13:08;;;;;;;36.88;21.52;;;;;;;-1.02;100.00;152295.72;5019888;28;20044;-74
2022/12/19 08:15:34;;;;;;;38.17;22.27;;;;;;;-1.01;100.00;152298.25;5013010;28;20616;-75
2022/12/19 08:18:01;;;;;;;35.08;20.33;;;;;;;-0.98;100.00;152305.91;5028623;28;20471;-74
2022/12/19 08:20:27;;;;;;;37.80;21.65;;;;;;;-1.02;100.00;152294.41;5012240;28;20604;-74
2022/12/19 08:22:52;;;;;;;38.83;21.92;;;;;;;-1.02;100.00;152294.41;5044589;28;20041;-75
2022/12/19 08:25:18;;;;;;;43.47;24.48;;;;;;;-0.88;100.00;152330.06;5040955;28;20132;-74
2022/12/19 08:27:43;;;;;;;42.10;23.45;;;;;;;-0.98;100.00;152304.59;5016976;28;20052;-74
2022/12/19 08:30:12;;;;;;;40.85;23.30;;;;;;;-0.93;100.00;152316.06;5025404;28;20033;-74
2022/12/19 08:32:37;;;;;;;38.78;22.48;;;;;;;-0.82;100.00;152344.06;4999803;28;20457;-75
2022/12/19 08:35:04;;;;;;;47.33;23.10;;;;;;;-0.85;100.00;152337.72;5017451;28;20490;-73
2022/12/19 08:37:29;;;;;;;46.45;24.17;;;;;;;-0.84;100.00;152339.00;5012332;28;20068;-74
2022/12/19 08:39:57;;;;;;;46.28;25.33;;;;;;;-0.84;100.00;152340.25;5022537;28;20063;-74
2022/12/19 08:42:23;;;;;;;48.83;25.50;;;;;;;-0.80;100.00;152350.44;5011892;28;20122;-74
2022/12/19 08:44:48;;;;;;;44.90;23.55;;;;;;;-0.69;100.00;152375.91;5008251;28;20049;-74
2022/12/19 08:47:14;;;;;;;43.63;24.75;;;;;;;-0.72;100.00;152369.50;5005186;28;20124;-74
2022/12/19 08:49:39;;;;;;;53.05;25.88;;;;;;;-0.68;100.00;152378.44;5013267;28;20103;-75
2022/12/19 08:52:05;;;;;;;48.75;26.08;;;;;;;-0.60;100.00;152398.81;4995021;28;20499;-74
2022/12/19 08:54:30;;;;;;;51.20;25.38;;;;;;;-0.63;100.00;152392.44;4992302;28;20094;-74
2022/12/19 08:56:57;;;;;;;51.05;26.48;;;;;;;-0.64;100.00;152389.91;5004373;28;20095;-75
2022/12/19 08:59:22;;;;;;;51.03;26.00;;;;;;;-0.64;100.00;152388.59;5004835;28;20051;-75
2022/12/19 09:01:48;;;;;;;54.05;26.65;;;;;;;-0.65;100.00;152386.09;5024367;28;20485;-74
2022/12/19 09:04:16;;;;;;;49.70;26.35;;;;;;;-0.70;100.00;152373.34;4999684;28;20129;-74
2022/12/19 09:06:42;;;;;;;51.83;27.30;;;;;;;-0.65;100.00;152386.09;5000036;28;20041;-74
2022/12/19 09:09:08;;;;;;;57.95;27.80;;;;;;;-0.61;100.00;152397.53;5034163;28;20118;-74
2022/12/19 09:11:34;;;;;;;53.92;27.70;;;;;;;-0.54;100.00;152412.81;5018973;28;20125;-74
2022/12/19 09:14:00;;;;;;;60.75;29.30;;;;;;;-0.56;100.00;152409.00;4996553;28;20033;-74
2022/12/19 09:16:27;;;;;;;54.22;27.38;;;;;;;-0.59;100.00;152401.34;5016388;28;20039;-74
2022/12/19 09:18:55;;;;;;;55.03;28.45;;;;;;;-0.42;100.00;152443.34;5010057;28;20171;-74
2022/12/19 09:21:22;;;;;;;57.35;28.58;;;;;;;-0.44;100.00;152438.28;5021904;28;20396;-74
2022/12/19 09:23:57;;;;;;;53.90;26.65;;;;;;;-0.35;100.00;152459.94;4998092;28;20036;-74
2022/12/19 09:26:24;;;;;;;56.10;28.30;;;;;;;-0.32;100.00;152468.84;5048370;28;20044;-74
2022/12/19 09:28:50;;;;;;;61.17;30.90;;;;;;;-0.41;100.00;152445.94;5030974;28;20032;-74
2022/12/19 09:31:18;;;;;;;59.17;29.80;;;;;;;-0.34;100.00;152462.44;5053129;28;20060;-74
2022/12/19 09:33:45;;;;;;;57.05;29.80;;;;;;;-0.34;100.00;152463.75;5025415;28;20588;-74
2022/12/19 09:36:24;;;;;;;65.22;30.42;;;;;;;-0.29;100.00;152476.47;5023124;28;20033;-74
2022/12/19 09:38:52;;;;;;;62.03;30.00;;;;;;;-0.22;100.00;152493.03;5024459;28;20128;-74
2022/12/19 09:41:39;;;;;;;63.83;30.13;;;;;;;-0.24;100.00;152489.19;5045271;28;20491;-74
2022/12/19 09:44:24;;;;;;;62.95;29.35;;;;;;;-0.09;100.00;152526.13;5041215;28;20495;-75
2022/12/19 09:46:53;;;;;;;60.05;29.63;;;;;;;-0.09;100.00;152526.13;5035793;28;20592;-75
2022/12/19 09:49:36;;;;;;;62.40;29.48;;;;;;;-0.08;100.00;152527.41;5018784;28;20032;-75
2022/12/19 09:52:14;;;;;;;62.97;28.83;;;;;;;-0.12;100.00;152517.22;5013571;28;20647;-74
2022/12/19 09:54:50;;;;;;;61.42;29.00;;;;;;;-0.10;100.00;152522.31;5031646;28;20032;-74
2022/12/19 09:57:40;;;;;;;63.25;30.92;;;;;;;-0.06;100.00;152533.78;4996387;28;20509;-74
2022/12/19 10:00:11;;;;;;;61.50;29.40;;;;;;;-0.04;100.00;152538.88;5036975;28;20045;-74
2022/12/19 10:02:58;;;;;;;61.05;29.38;;;;;;;-0.02;100.00;152543.97;5000221;28;20064;-74
2022/12/19 10:05:40;;;;;;;57.42;30.80;;;;;;;-0.03;100.00;152541.41;5030483;28;20395;-74
2022/12/19 10:08:16;;;;;;;63.20;29.95;;;;;;;0.02;100.00;152551.59;5025929;28;20662;-74
2022/12/19 10:10:52;;;;;;;64.40;29.98;;;;;;;0.00;100.00;152547.81;4984570;28;20126;-74
2022/12/19 10:13:59;;;;;;;60.85;29.83;;;;;;;0.09;100.00;152569.44;5017827;28;20040;-75
2022/12/19 10:17:00;;;;;;;57.55;28.55;;;;;;;0.15;100.00;152586.00;5023572;28;20056;-76
2022/12/19 10:19:34;;;;;;;59.78;28.13;;;;;;;0.20;100.00;152597.44;5021221;28;20773;-74
2022/12/19 10:22:17;;;;;;;57.25;29.33;;;;;;;0.15;100.00;152586.00;5017729;28;20030;-74
2022/12/19 10:24:56;;;;;;;56.22;28.10;;;;;;;0.29;100.00;152619.13;5003719;28;20032;-75
2022/12/19 10:27:40;;;;;;;54.65;27.27;;;;;;;0.25;100.00;152610.19;5022438;28;20035;-75
2022/12/19 10:30:20;;;;;;;56.70;27.92;;;;;;;0.19;100.00;152594.94;5023764;28;20111;-74
2022/12/19 10:33:14;;;;;;;57.55;28.63;;;;;;;0.27;100.00;152615.28;5025684;28;20037;-74
2022/12/19 10:35:42;;;;;;;55.28;28.92;;;;;;;0.27;100.00;152614.03;5013552;28;20098;-75
2022/12/19 10:38:32;;;;;;;55.28;28.45;;;;;;;0.29;100.00;152619.13;5032183;28;20032;-75
2022/12/19 10:41:21;;;;;;;54.63;28.60;;;;;;;0.25;100.00;152608.94;5027599;28;20029;-74
2022/12/19 10:44:01;;;;;;;56.38;27.30;;;;;;;0.29;100.00;152619.13;5014504;28;20908;-75
2022/12/19 10:46:30;;;;;;;61.10;28.40;;;;;;;0.30;100.00;152621.66;5028365;28;20087;-74
2022/12/19 10:48:55;;;;;;;57.03;28.45;;;;;;;0.36;100.00;152638.22;5034562;28;20069;-73
2022/12/19 10:51:27;;;;;;;50.65;27.55;;;;;;;0.47;100.00;152665.00;5024955;28;20075;-74
2022/12/19 10:53:59;;;;;;;51.90;28.17;;;;;;;0.43;100.00;152653.50;5027827;28;20040;-74
2022/12/19 10:56:27;;;;;;;50.95;27.42;;;;;;;0.45;100.00;152659.84;5032283;28;20068;-74
2022/12/19 10:58:57;;;;;;;53.13;27.83;;;;;;;0.48;100.00;152667.50;5043609;28;20040;-74
2022/12/19 11:01:39;;;;;;;54.70;27.20;;;;;;;0.54;100.00;152681.53;4999995;28;20029;-75
2022/12/19 11:04:27;;;;;;;58.47;28.88;;;;;;;0.57;100.00;152690.44;5020724;28;20086;-74
2022/12/19 11:06:59;;;;;;;52.50;27.02;;;;;;;0.66;100.00;152710.81;5033618;28;20039;-74
2022/12/19 11:09:29;;;;;;;52.03;26.65;;;;;;;0.64;100.00;152707.03;5042998;28;20128;-75
2022/12/19 11:12:12;;;;;;;55.65;30.02;;;;;;;0.63;100.00;152703.22;5008785;28;20041;-74
2022/12/19 11:14:41;;;;;;;52.22;27.63;;;;;;;0.81;100.00;152749.09;5015507;28;20025;-73
2022/12/19 11:17:23;;;;;;;52.33;27.45;;;;;;;0.85;100.00;152757.97;5012805;28;20037;-74
2022/12/19 11:19:49;;;;;;;50.47;25.67;;;;;;;0.84;100.00;152755.44;5027007;28;20044;-74
2022/12/19 11:22:20;;;;;;;52.63;27.90;;;;;;;0.86;100.00;152761.81;5032861;28;20039;-74
2022/12/19 11:24:51;;;;;;;56.05;27.73;;;;;;;0.95;100.00;152783.47;5052061;28;20036;-74